KMLU/MLU METAR and TAF weather

Enter ICAO airport designator
Station Type Date Time Source
KMLU METAR 2021/09/24 01:53 UTC NOAA

KMLU 240153Z 00000KT 10SM CLR 16/14 A3008 RMK AO2 SLP184 T01610139


Station Type Date Time Source
KMLU Decoded METAR 2021/09/24 01:53 UTC NOAA

MONROE REGIONAL AIRPORT, LA, United States (KMLU) 32-31N 092-02W 29M
Sep 23, 2021 - 09:53 PM EDT / 2021.09.24 0153 UTC
Wind: Calm:0
Visibility: 10 mile(s):0
Sky conditions: clear
Temperature: 61.0 F (16.1 C)
Dew Point: 57.0 F (13.9 C)
Relative Humidity: 86%
Pressure (altimeter): 30.08 in. Hg (1018 hPa)
ob: KMLU 240153Z 00000KT 10SM CLR 16/14 A3008 RMK AO2 SLP184 T01610139
cycle: 2

Station Type Date Time Source
KMLU TAF 2021/09/23 18:24 UTC NOAA

TAF KMLU 231723Z 2318/2418 36004KT P6SM SKC
FM240600 VRB03KT P6SM FEW250
FM241500 VRB03KT P6SM SCT250

Example: see airport list